Wertzville, Pennsylvania
Current Conditions -  °F | °C
As of 12:56 PM on Thursday 27 Nov 2014 (Local Time) from KCXY Reporting Station
Overcast Overcast  
Wind Chill: 30°   Ceiling: 3400
Heat Index: 36°   Visibility: 10mi
Dew Point: 28°   Wind: 7mph
Humidity: 73%   Direction: 280°W
Pressure: 30.04"   Gusts: NA
Location:  40.2485°N, 77.0142°W
Report Text: KCXY 271756Z 28006KT 10SM BKN034 OVC055 02/M02 A3004 RMK AO2 SLP176 T00221022 10028 20006 58004
Loading
Personal Weather Stations






























Interactive Weather Map New forecast layout! Learn more

10-Day Weather Forecast

Advertisements
Track Severe Weather on mobile